MST,Max TemperatureF,Mean TemperatureF,Min TemperatureF,Max Dew PointF,MeanDew PointF,Min DewpointF,Max Humidity, Mean Humidity, Min Humidity, Max Sea Level PressureIn, Mean Sea Level PressureIn, Min Sea Level PressureIn, Max VisibilityMiles, Mean VisibilityMiles, Min VisibilityMiles, Max Wind SpeedMPH, Mean Wind SpeedMPH, Max Gust SpeedMPH,PrecipitationIn, CloudCover, Events, WindDirDegrees
2013-12-1,47,40,33,34,30,26,75,60,45,30.04,29.78,29.58,10,10,5,25,15,30,0.03,6,Rain,238
2013-12-2,47,29,11,35,24,3,100,77,53,29.99,29.63,29.49,10,7,1,32,13,46,0.20,8,Rain-Snow,286
2013-12-3,11,6,1,4,0,-6,88,79,69,30.37,30.13,29.85,7,2,0,24,15,29,0.05,8,Snow,295
2013-12-4,8,-4,-17,-5,-8,-22,91,74,57,30.43,30.21,30.09,10,4,1,17,9,24,0.01,8,Snow,288
2013-12-5,1,-10,-22,-9,-16,-27,100,79,58,30.56,30.39,30.10,10,9,3,13,5,15,T,3,Snow,264
2013-12-6,-10,-16,-23,-20,-27,-35,69,53,36,30.75,30.58,30.28,10,10,6,14,8,16,0.00,2,,230
2013-12-7,-2,-15,-29,-18,-27,-38,86,68,50,30.62,30.46,30.21,10,10,10,9,4,9,0.00,0,,127
2013-12-8,15,-2,-20,4,-3,-24,86,66,45,30.27,30.07,29.88,10,5,0,22,10,29,T,6,Snow,279
2013-12-9,28,10,-8,14,5,-12,82,62,42,30.13,30.04,29.96,10,10,6,29,16,38,0.00,5,,255
2013-12-10,31,14,-3,22,14,-5,91,71,50,30.38,30.08,29.80,10,4,0,26,12,33,0.01,7,Snow,296
2013-12-11,33,15,-4,23,12,-6,88,68,47,30.34,30.24,30.14,10,10,5,26,15,32,0.00,1,,235
2013-12-12,41,38,35,26,23,20,69,62,54,30.14,29.99,29.84,10,10,10,22,14,,0.00,0,,249
2013-12-13,36,28,20,26,22,17,84,70,56,30.22,30.05,29.85,10,10,9,18,6,20,0.00,4,,271
2013-12-14,40,34,27,29,25,20,78,71,64,30.20,30.10,29.95,10,10,10,24,17,30,0.00,2,,238
2013-12-15,43,39,34,28,26,23,70,62,53,29.99,29.95,29.92,10,10,10,32,21,37,0.00,1,,251
2013-12-16,41,31,21,28,24,18,84,68,51,30.28,30.11,30.00,10,10,10,23,10,29,0.00,1,,270
2013-12-17,49,34,19,26,23,16,84,60,36,30.26,29.98,29.74,10,10,10,33,14,42,0.00,0,,231
2013-12-18,47,27,7,27,22,5,100,69,37,30.04,29.80,29.69,10,6,1,22,9,26,0.08,5,Snow,4
2013-12-19,7,0,-8,4,-4,-11,95,84,72,30.33,30.10,29.92,10,5,1,18,7,24,0.01,6,Snow,272
2013-12-20,25,13,1,20,10,-2,87,73,59,30.01,29.75,29.47,10,9,1,17,7,20,0.01,4,Snow,165
2013-12-21,24,18,11,23,17,9,100,92,84,30.11,29.74,29.47,10,4,1,14,6,18,0.08,8,Snow,283
2013-12-22,11,4,-4,8,3,-5,92,86,79,30.42,30.16,29.93,10,4,1,14,8,16,0.05,7,Snow,257
2013-12-23,42,22,1,32,22,-2,95,80,65,30.35,30.06,29.83,10,10,10,26,13,40,0.03,5,Rain,220
2013-12-24,37,28,19,32,27,14,100,79,58,30.39,30.09,29.88,10,8,1,29,16,40,0.03,6,Snow,281
2013-12-25,42,27,12,23,16,9,88,66,43,30.43,30.26,30.11,10,10,10,31,11,37,0.00,0,,244
2013-12-26,43,36,29,31,27,18,70,61,52,30.19,30.10,30.01,10,10,10,22,13,28,0.00,0,,231
2013-12-27,49,43,36,30,26,21,70,56,42,30.09,29.97,29.80,10,10,10,21,13,24,0.00,0,,227
2013-12-28,42,23,3,26,8,0,100,70,40,30.48,30.27,29.81,10,8,1,31,10,41,T,7,Snow,311
2013-12-29,36,24,12,25,17,9,96,76,56,30.45,30.13,29.91,10,10,6,24,12,38,T,5,Snow,252
2013-12-30,40,33,26,29,25,21,92,76,59,30.20,30.05,29.84,10,10,10,25,10,31,T,5,,267
2013-12-31,40,33,25,32,28,24,100,82,64,30.11,29.93,29.84,10,7,1,23,7,31,0.07,8,Rain-Snow,314